Airfield :
LOGIN :

Register | Disclaimer

   EN    FR    IT 

 










Legend :    VFR   Marginal VFR   IFR   Intensive IFR   Very Intensive IFR
Visi :
Ceiling :
>= 8 km
>= 3000ft
5 to 8 km
1000 to 3000 ft
1500m to 5 km
500 to 1000 ft
800 to 1500m
200 to 500 ft
< 800m
< 200 ft
Symbols :   Thunderstorms  Fog  Heavy snow  Heavy precipitations  Wind > 20 kt
SIGMETs :     Misc.  Thunderstorms  Icing  Turbulence  Mountain Waves  Volcanic Ashes







- Airport Elevation : 219 ft
- IATA code : DNR
- Download approach charts


LFRD - Dinard

CURRENT METAR :
  • 222330Z AUTO 30005KT 9999 FEW014 SCT035 15/13 Q1019 BECMG BKN011

EXPIRED METARs :
  • 222300Z AUTO 31007KT 9999 SCT012 SCT018 BKN033 16/13 Q1019 NOSIG
  • 222230Z AUTO 32007KT 290V350 9999 BKN011 OVC017 16/14 Q1019 BECMG BKN015
  • 222200Z AUTO 32006KT 9999 BKN011 OVC038 16/14 Q1019 BECMG BKN015
  • 222130Z AUTO 32005KT 9999 SCT039 16/14 Q1018 NOSIG
  • 222100Z AUTO 32007KT 9999 FEW039 16/14 Q1018 NOSIG

TAF TAF LFRD
Valid from the 23 at 00:00 until the 24 at 00:00 UTC


222300Z 2300/2324 30010KT 9999 BKN011
BECMG 2305/2307 BKN020
BECMG 2308/2310 30005KT
BECMG 2311/2313 35010KT CAVOK
BECMG 2321/2324 24008KT
ATIS : +33 2 99 16 81 50
No reported NOTAMs for that airfield.



MET'MAP, your aeronautical weather chart ! - Copyright ORBIFLY December 2007 - Disclaimer

ORBIFLY MET'MAP TEAM :

Programming & Development : Alexandra Zaïnal
Concept & Development : Baudouin d'Aumeries
Co-Development & Prog : Marc-Olivier Méhu
Technical & hardware support : Manuel Goepfert

Contact : metmap@orbifly.com




SOURCES & CREDITS :

   NOAA